createdAt,value
2018-01-23T00:00:59.704Z,1023.28
2018-01-23T00:01:59.626Z,1023.33
2018-01-23T00:02:59.761Z,1023.34
2018-01-23T00:03:59.512Z,1023.42
2018-01-23T00:04:59.579Z,1023.42
2018-01-23T00:05:59.840Z,1023.46
2018-01-23T00:07:00.194Z,1023.46
2018-01-23T00:08:00.542Z,1023.48
2018-01-23T00:08:59.684Z,1023.49
2018-01-23T00:09:59.493Z,1023.46
2018-01-23T00:10:59.559Z,1023.45
2018-01-23T00:11:59.638Z,1023.42
2018-01-23T00:13:00.408Z,1023.45
2018-01-23T00:14:00.114Z,1023.42
2018-01-23T00:14:59.628Z,1023.47
2018-01-23T00:15:59.816Z,1023.53
2018-01-23T00:16:59.624Z,1023.57
2018-01-23T00:18:00.291Z,1023.59
2018-01-23T00:19:00.678Z,1023.52
2018-01-23T00:20:00.094Z,1023.52
2018-01-23T00:20:59.693Z,1023.51
2018-01-23T00:21:59.659Z,1023.57
2018-01-23T00:22:59.548Z,1023.59
2018-01-23T00:24:00.571Z,1023.61
2018-01-23T00:24:59.536Z,1023.62
2018-01-23T00:25:59.539Z,1023.65
2018-01-23T00:26:59.614Z,1023.6
2018-01-23T00:27:59.878Z,1023.65
2018-01-23T00:28:59.840Z,1023.66
2018-01-23T00:30:00.480Z,1023.66
2018-01-23T00:31:00.115Z,1023.72
2018-01-23T00:32:00.381Z,1023.79
2018-01-23T00:33:00.805Z,1023.81
2018-01-23T00:34:00.393Z,1023.83
2018-01-23T00:35:00.013Z,1023.9
2018-01-23T00:35:59.914Z,1023.99
2018-01-23T00:37:01.304Z,1023.98
2018-01-23T00:37:59.881Z,1023.96
2018-01-23T00:38:59.794Z,1024
2018-01-23T00:39:59.766Z,1024
2018-01-23T00:41:00.183Z,1024
2018-01-23T00:41:59.747Z,1024.04
2018-01-23T00:42:59.720Z,1024.09
2018-01-23T00:43:59.719Z,1024.1
2018-01-23T00:44:59.585Z,1024.15
2018-01-23T00:45:59.653Z,1024.22
2018-01-23T00:47:00.396Z,1024.14
2018-01-23T00:47:59.792Z,1024.17
2018-01-23T00:49:00.314Z,1024.17
2018-01-23T00:49:59.655Z,1024.23
2018-01-23T00:50:59.630Z,1024.24
2018-01-23T00:51:59.838Z,1024.23
2018-01-23T00:53:00.322Z,1024.17
2018-01-23T00:53:59.617Z,1024.13
2018-01-23T00:54:59.662Z,1024.14
2018-01-23T00:55:59.571Z,1024.16
2018-01-23T00:56:59.740Z,1024.14
2018-01-23T00:58:00.842Z,1024.13
2018-01-23T00:58:59.568Z,1024.11
2018-01-23T00:59:59.910Z,1024.16
2018-01-23T01:01:00.527Z,1024.07
2018-01-23T01:02:00.093Z,1024
2018-01-23T01:02:59.717Z,1024.01
2018-01-23T01:03:59.770Z,1024.02
2018-01-23T01:04:59.928Z,1024.08
2018-01-23T01:06:00.231Z,1024.12
2018-01-23T01:07:00.468Z,1024.17
2018-01-23T01:07:59.975Z,1024.19
2018-01-23T01:09:00.227Z,1024.16
2018-01-23T01:09:59.609Z,1024.18
2018-01-23T01:10:59.666Z,1024.21
2018-01-23T01:12:00.811Z,1024.25
2018-01-23T01:12:59.737Z,1024.21
2018-01-23T01:14:00.074Z,1024.27
2018-01-23T01:15:00.844Z,1024.28
2018-01-23T01:15:59.639Z,1024.31
2018-01-23T01:16:59.591Z,1024.36
2018-01-23T01:17:59.926Z,1024.41
2018-01-23T01:18:59.794Z,1024.42
2018-01-23T01:19:59.983Z,1024.49
2018-01-23T01:20:59.717Z,1024.48
2018-01-23T01:21:59.667Z,1024.48
2018-01-23T01:22:59.719Z,1024.51
2018-01-23T01:23:59.687Z,1024.51
2018-01-23T01:24:59.616Z,1024.51
2018-01-23T01:25:59.645Z,1024.55
2018-01-23T01:26:59.752Z,1024.54
2018-01-23T01:27:59.744Z,1024.52
2018-01-23T01:28:59.738Z,1024.51
2018-01-23T01:30:00.521Z,1024.54
2018-01-23T01:31:01.004Z,1024.54
2018-01-23T01:32:00.462Z,1024.58
2018-01-23T01:33:00.471Z,1024.56
2018-01-23T01:34:01.743Z,1024.62
2018-01-23T01:34:59.677Z,1024.62
2018-01-23T01:36:00.490Z,1024.64
2018-01-23T01:36:59.802Z,1024.71
2018-01-23T01:37:59.722Z,1024.75
2018-01-23T01:38:59.715Z,1024.79
2018-01-23T01:39:59.722Z,1024.86
2018-01-23T01:40:59.998Z,1024.83
2018-01-23T01:42:00.575Z,1024.87
2018-01-23T01:42:59.800Z,1024.89
2018-01-23T01:43:59.711Z,1024.95
2018-01-23T01:44:59.969Z,1024.94
2018-01-23T01:46:00.608Z,1024.97
2018-01-23T01:47:00.004Z,1024.98
2018-01-23T01:48:00.037Z,1024.99
2018-01-23T01:49:00.292Z,1025.03
2018-01-23T01:50:02.520Z,1025.02
2018-01-23T01:50:59.629Z,1025.02
2018-01-23T01:52:00.456Z,1025.01
2018-01-23T01:52:59.715Z,1025.03
2018-01-23T01:53:59.903Z,1024.99
2018-01-23T01:54:59.789Z,1025.08
2018-01-23T01:55:59.797Z,1025.06
2018-01-23T01:57:00.092Z,1025.1
2018-01-23T01:57:59.943Z,1025.08
2018-01-23T01:59:00.432Z,1025.04
2018-01-23T01:59:59.859Z,1025.09
2018-01-23T02:01:01.101Z,1025.08
2018-01-23T02:01:59.769Z,1025.11
2018-01-23T02:02:59.974Z,1025.13
2018-01-23T02:04:00.260Z,1025.14
2018-01-23T02:04:59.635Z,1025.14
2018-01-23T02:05:59.784Z,1025.17
2018-01-23T02:06:59.756Z,1025.16
2018-01-23T02:07:59.728Z,1025.14
2018-01-23T02:09:00.770Z,1025.17
2018-01-23T02:09:59.956Z,1025.16
2018-01-23T02:11:00.516Z,1025.13
2018-01-23T02:12:01.245Z,1025.15
2018-01-23T02:12:59.780Z,1025.15
2018-01-23T02:13:59.673Z,1025.12
2018-01-23T02:14:59.778Z,1025.05
2018-01-23T02:16:00.909Z,1025.05
2018-01-23T02:16:59.739Z,1025.08
2018-01-23T02:17:59.845Z,1025.16
2018-01-23T02:19:02.701Z,1025.2
2018-01-23T02:19:59.837Z,1025.24
2018-01-23T02:20:59.856Z,1025.24
2018-01-23T02:21:59.698Z,1025.23
2018-01-23T02:22:59.645Z,1025.3
2018-01-23T02:23:59.655Z,1025.32
2018-01-23T02:25:00.585Z,1025.3
2018-01-23T02:26:00.472Z,1025.34
2018-01-23T02:27:00.889Z,1025.35
2018-01-23T02:28:01.114Z,1025.35
2018-01-23T02:28:59.877Z,1025.34
2018-01-23T02:29:59.815Z,1025.36
2018-01-23T02:31:00.076Z,1025.41
2018-01-23T02:32:00.018Z,1025.43
2018-01-23T02:32:59.650Z,1025.46
2018-01-23T02:34:00.153Z,1025.48
2018-01-23T02:34:59.936Z,1025.48
2018-01-23T02:35:59.898Z,1025.49
2018-01-23T02:37:00.512Z,1025.53
2018-01-23T02:38:00.756Z,1025.52
2018-01-23T02:39:00.075Z,1025.51
2018-01-23T02:40:00.128Z,1025.51
2018-01-23T02:40:59.872Z,1025.52
2018-01-23T02:41:59.844Z,1025.52
2018-01-23T02:43:01.467Z,1025.52
2018-01-23T02:44:00.375Z,1025.48
2018-01-23T02:45:00.558Z,1025.48
2018-01-23T02:45:59.810Z,1025.46
2018-01-23T02:46:59.751Z,1025.41
2018-01-23T02:48:01.395Z,1025.44
2018-01-23T02:49:00.020Z,1025.4
2018-01-23T02:49:59.735Z,1025.41
2018-01-23T02:51:00.074Z,1025.45
2018-01-23T02:52:00.902Z,1025.49
2018-01-23T02:52:59.945Z,1025.5
2018-01-23T02:53:59.832Z,1025.52
2018-01-23T02:54:59.839Z,1025.53
2018-01-23T02:55:59.854Z,1025.56
2018-01-23T02:56:59.949Z,1025.55
2018-01-23T02:58:00.417Z,1025.52
2018-01-23T02:59:00.380Z,1025.51
2018-01-23T03:00:02.447Z,1025.55
2018-01-23T03:01:00.844Z,1025.55
2018-01-23T03:01:59.820Z,1025.5
2018-01-23T03:02:59.852Z,1025.5
2018-01-23T03:03:59.869Z,1025.47
2018-01-23T03:04:59.900Z,1025.47
2018-01-23T03:05:59.808Z,1025.49
2018-01-23T03:06:59.868Z,1025.48
2018-01-23T03:07:59.938Z,1025.51
2018-01-23T03:08:59.812Z,1025.51
2018-01-23T03:10:01.383Z,1025.56
2018-01-23T03:10:59.912Z,1025.56
2018-01-23T03:11:59.788Z,1025.58
2018-01-23T03:13:04.299Z,1025.56
2018-01-23T03:14:01.232Z,1025.56
2018-01-23T03:14:59.794Z,1025.56
2018-01-23T03:16:00.795Z,1025.62
2018-01-23T03:17:01.049Z,1025.6
2018-01-23T03:17:59.968Z,1025.61
2018-01-23T03:19:00.633Z,1025.67
2018-01-23T03:19:59.799Z,1025.66
2018-01-23T03:20:59.887Z,1025.69
2018-01-23T03:21:59.751Z,1025.7
2018-01-23T03:23:01.973Z,1025.69
2018-01-23T03:24:00.045Z,1025.73
2018-01-23T03:24:59.837Z,1025.77
2018-01-23T03:25:59.897Z,1025.78
2018-01-23T03:26:59.819Z,1025.82
2018-01-23T03:28:00.899Z,1025.85
2018-01-23T03:28:59.828Z,1025.85
2018-01-23T03:30:00.364Z,1025.87
2018-01-23T03:30:59.827Z,1025.84
2018-01-23T03:31:59.849Z,1025.86
2018-01-23T03:33:00.512Z,1025.89
2018-01-23T03:33:59.748Z,1025.9
2018-01-23T03:35:00.792Z,1025.9
2018-01-23T03:35:59.785Z,1025.89
2018-01-23T03:37:01.158Z,1025.93
2018-01-23T03:38:00.096Z,1025.97
2018-01-23T03:39:00.884Z,1025.93
2018-01-23T03:40:00.791Z,1025.91
2018-01-23T03:41:01.051Z,1025.94
2018-01-23T03:42:01.681Z,1025.95
2018-01-23T03:43:00.912Z,1025.96
2018-01-23T03:43:59.894Z,1026.01
2018-01-23T03:45:00.024Z,1026.02
2018-01-23T03:46:00.370Z,1026.01
2018-01-23T03:47:00.224Z,1026.02
2018-01-23T03:48:00.634Z,1026.06
2018-01-23T03:48:59.850Z,1026.05
2018-01-23T03:50:00.005Z,1026.1
2018-01-23T03:50:59.905Z,1026.07
2018-01-23T03:52:00.149Z,1026.06
2018-01-23T03:53:00.222Z,1026.12
2018-01-23T03:54:00.824Z,1026.13
2018-01-23T03:55:00.341Z,1026.13
2018-01-23T03:55:59.827Z,1026.14
2018-01-23T03:56:59.975Z,1026.16
2018-01-23T03:57:59.904Z,1026.2
2018-01-23T03:59:00.663Z,1026.24
2018-01-23T03:59:59.864Z,1026.18
2018-01-23T04:01:00.185Z,1026.16
2018-01-23T04:02:00.632Z,1026.21
2018-01-23T04:02:59.719Z,1026.25
2018-01-23T04:03:59.785Z,1026.26
2018-01-23T04:05:00.462Z,1026.26
2018-01-23T04:06:00.428Z,1026.3
2018-01-23T04:07:01.330Z,1026.26
2018-01-23T04:08:00.085Z,1026.3
2018-01-23T04:09:00.016Z,1026.3
2018-01-23T04:10:00.582Z,1026.3
2018-01-23T04:10:59.957Z,1026.32
2018-01-23T04:12:00.903Z,1026.28
2018-01-23T04:12:59.959Z,1026.25
2018-01-23T04:13:59.988Z,1026.31
2018-01-23T04:15:01.249Z,1026.26
2018-01-23T04:16:01.464Z,1026.28
2018-01-23T04:16:59.996Z,1026.33
2018-01-23T04:18:01.000Z,1026.3
2018-01-23T04:19:00.150Z,1026.32
2018-01-23T04:20:00.084Z,1026.25
2018-01-23T04:21:00.031Z,1026.28
2018-01-23T04:22:00.842Z,1026.32
2018-01-23T04:22:59.932Z,1026.31
2018-01-23T04:24:00.039Z,1026.25
2018-01-23T04:25:00.434Z,1026.27
2018-01-23T04:26:00.791Z,1026.21
2018-01-23T04:27:00.037Z,1026.26
2018-01-23T04:27:59.982Z,1026.26
2018-01-23T04:29:00.038Z,1026.27
2018-01-23T04:30:01.195Z,1026.3
2018-01-23T04:31:00.523Z,1026.31
2018-01-23T04:32:00.685Z,1026.32
2018-01-23T04:33:00.078Z,1026.28
2018-01-23T04:33:59.911Z,1026.32
2018-01-23T04:35:00.617Z,1026.33
2018-01-23T04:36:00.047Z,1026.33
2018-01-23T04:37:00.030Z,1026.37
2018-01-23T04:38:01.323Z,1026.36
2018-01-23T04:39:00.094Z,1026.43
2018-01-23T04:39:59.920Z,1026.43
2018-01-23T04:41:00.032Z,1026.44
2018-01-23T04:41:59.969Z,1026.45
2018-01-23T04:43:00.886Z,1026.51
2018-01-23T04:44:00.175Z,1026.53
2018-01-23T04:45:00.087Z,1026.55
2018-01-23T04:46:00.662Z,1026.55
2018-01-23T04:47:00.690Z,1026.55
2018-01-23T04:48:00.580Z,1026.55
2018-01-23T04:49:00.014Z,1026.61
2018-01-23T04:49:59.986Z,1026.59
2018-01-23T04:51:00.393Z,1026.59
2018-01-23T04:51:59.909Z,1026.61
2018-01-23T04:53:01.078Z,1026.64
2018-01-23T04:54:00.146Z,1026.64
2018-01-23T04:55:00.255Z,1026.64
2018-01-23T04:56:00.653Z,1026.65
2018-01-23T04:57:00.145Z,1026.59
2018-01-23T04:57:59.943Z,1026.64
2018-01-23T04:59:00.691Z,1026.64
2018-01-23T04:59:59.963Z,1026.55
2018-01-23T05:00:59.977Z,1026.61
2018-01-23T05:02:00.665Z,1026.57
2018-01-23T05:03:00.091Z,1026.57
2018-01-23T05:03:59.901Z,1026.52
2018-01-23T05:05:00.140Z,1026.56
2018-01-23T05:06:00.017Z,1026.56
2018-01-23T05:07:00.670Z,1026.56
2018-01-23T05:08:00.013Z,1026.57
2018-01-23T05:09:00.605Z,1026.57
2018-01-23T05:10:00.061Z,1026.56
2018-01-23T05:11:00.436Z,1026.57
2018-01-23T05:12:00.071Z,1026.58
2018-01-23T05:13:00.164Z,1026.57
2018-01-23T05:14:01.933Z,1026.58
2018-01-23T05:15:00.380Z,1026.62
2018-01-23T05:16:00.185Z,1026.61
2018-01-23T05:17:01.084Z,1026.57
2018-01-23T05:18:00.891Z,1026.61
2018-01-23T05:19:01.462Z,1026.65
2018-01-23T05:20:02.578Z,1026.66
2018-01-23T05:21:00.014Z,1026.7
2018-01-23T05:22:00.685Z,1026.7
2018-01-23T05:23:01.520Z,1026.68
2018-01-23T05:24:00.050Z,1026.71
2018-01-23T05:25:00.070Z,1026.68
2018-01-23T05:26:00.025Z,1026.7
2018-01-23T05:27:00.104Z,1026.72
2018-01-23T05:28:00.823Z,1026.68
2018-01-23T05:29:00.348Z,1026.71
2018-01-23T05:30:00.873Z,1026.71
2018-01-23T05:31:00.717Z,1026.74
2018-01-23T05:31:59.963Z,1026.76
2018-01-23T05:33:00.219Z,1026.76
2018-01-23T05:34:00.318Z,1026.73
2018-01-23T05:35:00.071Z,1026.81
2018-01-23T05:36:00.867Z,1026.79
2018-01-23T05:37:00.214Z,1026.84
2018-01-23T05:38:00.027Z,1026.85
2018-01-23T05:39:00.147Z,1026.87
2018-01-23T05:40:01.120Z,1026.84
2018-01-23T05:41:00.974Z,1026.87
2018-01-23T05:42:00.056Z,1026.87
2018-01-23T05:43:00.301Z,1026.85
2018-01-23T05:44:00.341Z,1026.91
2018-01-23T05:45:00.422Z,1026.89
2018-01-23T05:46:00.058Z,1026.91
2018-01-23T05:47:01.004Z,1026.9
2018-01-23T05:48:00.057Z,1026.94
2018-01-23T05:49:00.067Z,1026.93
2018-01-23T05:50:00.601Z,1026.95
2018-01-23T05:51:00.819Z,1026.96
2018-01-23T05:52:00.014Z,1026.98
2018-01-23T05:53:00.118Z,1026.97
2018-01-23T05:54:00.058Z,1026.98
2018-01-23T05:55:00.106Z,1026.98
2018-01-23T05:56:00.244Z,1027.01
2018-01-23T05:57:00.167Z,1027
2018-01-23T05:58:00.167Z,1027.06
2018-01-23T05:59:00.086Z,1027.04
2018-01-23T06:00:00.948Z,1027.08
2018-01-23T06:01:00.102Z,1027.04
2018-01-23T06:02:00.093Z,1027.14
2018-01-23T06:03:00.175Z,1027.1
2018-01-23T06:04:01.512Z,1027.11
2018-01-23T06:05:00.408Z,1027.19
2018-01-23T06:06:00.031Z,1027.15
2018-01-23T06:07:00.492Z,1027.15
2018-01-23T06:08:00.252Z,1027.19
2018-01-23T06:09:00.130Z,1027.28
2018-01-23T06:10:00.780Z,1027.28
2018-01-23T06:11:00.133Z,1027.26
2018-01-23T06:12:00.249Z,1027.3
2018-01-23T06:13:00.955Z,1027.31
2018-01-23T06:14:00.301Z,1027.33
2018-01-23T06:15:00.129Z,1027.31
2018-01-23T06:16:00.353Z,1027.31
2018-01-23T06:17:00.262Z,1027.3
2018-01-23T06:18:00.203Z,1027.36
2018-01-23T06:19:00.340Z,1027.33
2018-01-23T06:20:01.444Z,1027.38
2018-01-23T06:21:04.658Z,1027.39
2018-01-23T06:22:00.332Z,1027.4
2018-01-23T06:23:00.354Z,1027.38
2018-01-23T06:24:00.279Z,1027.44
2018-01-23T06:25:01.478Z,1027.45
2018-01-23T06:26:00.387Z,1027.45
2018-01-23T06:27:00.740Z,1027.46
2018-01-23T06:28:00.139Z,1027.44
2018-01-23T06:29:00.764Z,1027.43
2018-01-23T06:30:00.676Z,1027.46
2018-01-23T06:31:00.258Z,1027.44
2018-01-23T06:32:00.349Z,1027.5
2018-01-23T06:33:00.231Z,1027.48
2018-01-23T06:34:00.248Z,1027.47
2018-01-23T06:35:01.028Z,1027.5
2018-01-23T06:36:00.288Z,1027.45
2018-01-23T06:37:00.928Z,1027.47
2018-01-23T06:38:00.213Z,1027.48
2018-01-23T06:39:00.257Z,1027.47
2018-01-23T06:40:01.658Z,1027.51
2018-01-23T06:41:00.834Z,1027.53
2018-01-23T06:42:00.168Z,1027.53
2018-01-23T06:43:00.109Z,1027.56
2018-01-23T06:44:00.256Z,1027.6
2018-01-23T06:45:00.992Z,1027.62
2018-01-23T06:46:00.194Z,1027.66
2018-01-23T06:47:00.135Z,1027.67
2018-01-23T06:48:01.702Z,1027.71
2018-01-23T06:49:00.204Z,1027.69
2018-01-23T06:50:00.526Z,1027.69
2018-01-23T06:51:01.206Z,1027.71
2018-01-23T06:52:00.407Z,1027.71
2018-01-23T06:53:00.220Z,1027.73
2018-01-23T06:54:01.581Z,1027.71
2018-01-23T06:55:00.578Z,1027.7
2018-01-23T06:56:00.345Z,1027.76
2018-01-23T06:57:00.821Z,1027.75
2018-01-23T06:58:00.252Z,1027.77
2018-01-23T06:59:00.323Z,1027.78
2018-01-23T07:00:00.558Z,1027.78
2018-01-23T07:01:00.136Z,1027.84
2018-01-23T07:02:01.074Z,1027.85
2018-01-23T07:03:00.137Z,1027.87
2018-01-23T07:04:01.164Z,1027.87
2018-01-23T07:05:00.890Z,1027.9
2018-01-23T07:06:00.206Z,1027.87
2018-01-23T07:07:00.440Z,1027.88
2018-01-23T07:08:00.163Z,1027.9
2018-01-23T07:09:00.960Z,1027.91
2018-01-23T07:10:01.693Z,1027.91
2018-01-23T07:11:00.406Z,1027.92
2018-01-23T07:12:00.606Z,1027.99
2018-01-23T07:13:00.239Z,1028
2018-01-23T07:14:00.603Z,1027.99
2018-01-23T07:15:00.224Z,1028.01
2018-01-23T07:16:00.353Z,1028.03
2018-01-23T07:17:00.232Z,1028.02
2018-01-23T07:18:00.295Z,1028.09
2018-01-23T07:19:00.771Z,1028.1
2018-01-23T07:20:00.289Z,1028.06
2018-01-23T07:21:00.311Z,1028.1
2018-01-23T07:22:00.220Z,1028.09
2018-01-23T07:23:01.798Z,1028.11
2018-01-23T07:24:00.891Z,1028.17
2018-01-23T07:25:00.348Z,1028.15
2018-01-23T07:26:01.370Z,1028.19
2018-01-23T07:27:00.275Z,1028.22
2018-01-23T07:28:00.152Z,1028.22
2018-01-23T07:29:00.940Z,1028.21
2018-01-23T07:30:01.999Z,1028.24
2018-01-23T07:31:00.313Z,1028.33
2018-01-23T07:32:01.950Z,1028.33
2018-01-23T07:33:00.162Z,1028.35
2018-01-23T07:34:00.136Z,1028.4
2018-01-23T07:35:00.286Z,1028.38
2018-01-23T07:36:00.305Z,1028.43
2018-01-23T07:37:00.766Z,1028.42
2018-01-23T07:37:59.661Z,1028.43
2018-01-23T07:38:59.674Z,1028.44
2018-01-23T07:39:59.748Z,1028.4
2018-01-23T07:40:59.704Z,1028.44
2018-01-23T07:41:59.868Z,1028.45
2018-01-23T07:42:59.667Z,1028.48
2018-01-23T07:43:59.714Z,1028.51
2018-01-23T07:44:59.653Z,1028.53
2018-01-23T07:45:59.623Z,1028.56
2018-01-23T07:46:59.852Z,1028.58
2018-01-23T07:47:59.661Z,1028.6
2018-01-23T07:48:59.656Z,1028.59
2018-01-23T07:49:59.676Z,1028.59
2018-01-23T07:50:59.720Z,1028.58
2018-01-23T07:51:59.688Z,1028.64
2018-01-23T07:52:59.744Z,1028.64
2018-01-23T07:53:59.649Z,1028.63
2018-01-23T07:54:59.734Z,1028.68
2018-01-23T07:55:59.684Z,1028.66
2018-01-23T07:56:59.690Z,1028.68
2018-01-23T07:57:59.775Z,1028.69
2018-01-23T07:58:59.686Z,1028.73
2018-01-23T07:59:59.656Z,1028.73
2018-01-23T08:00:59.749Z,1028.75
2018-01-23T08:01:59.741Z,1028.8
2018-01-23T08:03:00.024Z,1028.78
2018-01-23T08:03:59.657Z,1028.81
2018-01-23T08:04:59.674Z,1028.81
2018-01-23T08:05:59.722Z,1028.81
2018-01-23T08:06:59.742Z,1028.83
2018-01-23T08:08:00.021Z,1028.82
2018-01-23T08:08:59.830Z,1028.83
2018-01-23T08:09:59.761Z,1028.79
2018-01-23T08:11:00.265Z,1028.86
2018-01-23T08:11:59.841Z,1028.84
2018-01-23T08:12:59.945Z,1028.86
2018-01-23T08:13:59.812Z,1028.85
2018-01-23T08:14:59.847Z,1028.82
2018-01-23T08:15:59.734Z,1028.83
2018-01-23T08:16:59.822Z,1028.83
2018-01-23T08:17:59.862Z,1028.79
2018-01-23T08:18:59.707Z,1028.78
2018-01-23T08:19:59.807Z,1028.81
2018-01-23T08:20:59.761Z,1028.82
2018-01-23T08:21:59.752Z,1028.78
2018-01-23T08:22:59.853Z,1028.82
2018-01-23T08:23:59.773Z,1028.77
2018-01-23T08:24:59.972Z,1028.79
2018-01-23T08:25:59.781Z,1028.82
2018-01-23T08:26:59.787Z,1028.83
2018-01-23T08:27:59.770Z,1028.88
2018-01-23T08:28:59.785Z,1028.89
2018-01-23T08:30:01.995Z,1028.91
2018-01-23T08:31:00.008Z,1028.94
2018-01-23T08:32:00.377Z,1028.93
2018-01-23T08:32:59.942Z,1028.95
2018-01-23T08:34:00.451Z,1028.97
2018-01-23T08:35:00.006Z,1028.93
2018-01-23T08:35:59.732Z,1028.95
2018-01-23T08:37:00.380Z,1028.97
2018-01-23T08:38:01.098Z,1028.98
2018-01-23T08:39:00.004Z,1028.95
2018-01-23T08:40:00.674Z,1029
2018-01-23T08:40:59.924Z,1029.04
2018-01-23T08:41:59.872Z,1029.03
2018-01-23T08:42:59.750Z,1029.03
2018-01-23T08:43:59.961Z,1029.03
2018-01-23T08:44:59.885Z,1029.05
2018-01-23T08:45:59.851Z,1029.05
2018-01-23T08:46:59.867Z,1029.04
2018-01-23T08:48:00.005Z,1029.08
2018-01-23T08:48:59.817Z,1029.05
2018-01-23T08:49:59.875Z,1029.08
2018-01-23T08:50:59.939Z,1029.06
2018-01-23T08:51:59.893Z,1029.12
2018-01-23T08:52:59.840Z,1029.13
2018-01-23T08:53:59.936Z,1029.11
2018-01-23T08:54:59.759Z,1029.16
2018-01-23T08:55:59.904Z,1029.19
2018-01-23T08:56:59.878Z,1029.14
2018-01-23T08:57:59.861Z,1029.21
2018-01-23T08:58:59.874Z,1029.2
2018-01-23T08:59:59.833Z,1029.16
2018-01-23T09:00:59.886Z,1029.17
2018-01-23T09:02:00.013Z,1029.2
2018-01-23T09:02:59.854Z,1029.22
2018-01-23T09:03:59.898Z,1029.2
2018-01-23T09:04:59.841Z,1029.26
2018-01-23T09:05:59.906Z,1029.26
2018-01-23T09:06:59.843Z,1029.3
2018-01-23T09:07:59.911Z,1029.32
2018-01-23T09:08:59.929Z,1029.29
2018-01-23T09:09:59.855Z,1029.36
2018-01-23T09:10:59.965Z,1029.35
2018-01-23T09:11:59.862Z,1029.35
2018-01-23T09:12:59.903Z,1029.31
2018-01-23T09:13:59.951Z,1029.3
2018-01-23T09:14:59.925Z,1029.36
2018-01-23T09:15:59.862Z,1029.38
2018-01-23T09:16:59.949Z,1029.41
2018-01-23T09:17:59.924Z,1029.38
2018-01-23T09:19:00.286Z,1029.38
2018-01-23T09:20:00.007Z,1029.43
2018-01-23T09:20:59.863Z,1029.45
2018-01-23T09:21:59.892Z,1029.44
2018-01-23T09:22:59.887Z,1029.48
2018-01-23T09:24:00.711Z,1029.48
2018-01-23T09:24:59.977Z,1029.59
2018-01-23T09:25:59.880Z,1029.56
2018-01-23T09:26:59.927Z,1029.58
2018-01-23T09:27:59.883Z,1029.55
2018-01-23T09:28:59.876Z,1029.57
2018-01-23T09:29:59.915Z,1029.62
2018-01-23T09:30:59.973Z,1029.64
2018-01-23T09:31:59.909Z,1029.67
2018-01-23T09:33:00.519Z,1029.68
2018-01-23T09:33:59.909Z,1029.76
2018-01-23T09:34:59.867Z,1029.72
2018-01-23T09:35:59.912Z,1029.74
2018-01-23T09:36:59.911Z,1029.74
2018-01-23T09:38:00.014Z,1029.79
2018-01-23T09:38:59.998Z,1029.81
2018-01-23T09:40:00.026Z,1029.81
2018-01-23T09:41:00.086Z,1029.84
2018-01-23T09:41:59.977Z,1029.86
2018-01-23T09:42:59.974Z,1029.94
2018-01-23T09:43:59.991Z,1029.98
2018-01-23T09:45:00.050Z,1030
2018-01-23T09:45:59.991Z,1030.06
2018-01-23T09:46:59.908Z,1030.09
2018-01-23T09:47:59.942Z,1030.1
2018-01-23T09:49:00.340Z,1030.02
2018-01-23T09:49:59.956Z,1030.01
2018-01-23T09:51:00.049Z,1030.04
2018-01-23T09:52:00.301Z,1030.03
2018-01-23T09:53:00.564Z,1029.99
2018-01-23T09:53:59.882Z,1030
2018-01-23T09:54:59.920Z,1030
2018-01-23T09:55:59.992Z,1030
2018-01-23T09:57:00.488Z,1030.02
2018-01-23T09:57:59.985Z,1029.98
2018-01-23T09:58:59.955Z,1029.98
2018-01-23T09:59:59.962Z,1029.97
2018-01-23T10:00:59.920Z,1030
2018-01-23T10:02:00.047Z,1029.96
2018-01-23T10:03:00.212Z,1030
2018-01-23T10:04:00.017Z,1029.99
2018-01-23T10:05:00.007Z,1029.98
2018-01-23T10:06:00.008Z,1029.99
2018-01-23T10:06:59.985Z,1029.99
2018-01-23T10:08:00.097Z,1030.05
2018-01-23T10:09:00.276Z,1030
2018-01-23T10:09:59.985Z,1029.99
2018-01-23T10:10:59.989Z,1030
2018-01-23T10:12:00.099Z,1029.99
2018-01-23T10:13:00.038Z,1030
2018-01-23T10:14:00.073Z,1030
2018-01-23T10:15:00.064Z,1030.02
2018-01-23T10:16:00.084Z,1030.04
2018-01-23T10:17:00.041Z,1030.02
2018-01-23T10:18:00.044Z,1030.01
2018-01-23T10:19:00.017Z,1030.02
2018-01-23T10:20:00.045Z,1029.99
2018-01-23T10:21:00.410Z,1030
2018-01-23T10:22:00.029Z,1029.99
2018-01-23T10:23:00.074Z,1029.99
2018-01-23T10:24:00.069Z,1030.03
2018-01-23T10:25:00.077Z,1030.08
2018-01-23T10:26:00.050Z,1030.05
2018-01-23T10:27:00.122Z,1030.06
2018-01-23T10:28:00.092Z,1030.1
2018-01-23T10:29:00.016Z,1030.07
2018-01-23T10:30:00.017Z,1030.07
2018-01-23T10:31:00.119Z,1030.1
2018-01-23T10:32:00.016Z,1030.09
2018-01-23T10:33:00.006Z,1030.06
2018-01-23T10:34:00.048Z,1030.03
2018-01-23T10:35:00.116Z,1030.05
2018-01-23T10:35:59.904Z,1030.06
2018-01-23T10:37:00.028Z,1030.05
2018-01-23T10:38:00.232Z,1030.02
2018-01-23T10:38:59.994Z,1030.04
2018-01-23T10:40:00.037Z,1030.08
2018-01-23T10:41:00.503Z,1030.03
2018-01-23T10:42:00.039Z,1030.09
2018-01-23T10:43:00.107Z,1030.06
2018-01-23T10:44:00.178Z,1030.05
2018-01-23T10:45:00.107Z,1030.06
2018-01-23T10:46:00.122Z,1030.09
2018-01-23T10:47:00.060Z,1030.04
2018-01-23T10:48:00.084Z,1030.07
2018-01-23T10:49:00.326Z,1030.03
2018-01-23T10:50:00.099Z,1030.05
2018-01-23T10:51:00.074Z,1030.01
2018-01-23T10:52:00.084Z,1030.03
2018-01-23T10:53:00.041Z,1030.01
2018-01-23T10:54:00.118Z,1030.02
2018-01-23T10:55:00.095Z,1029.97
2018-01-23T10:56:00.112Z,1029.97
2018-01-23T10:56:59.986Z,1029.99
2018-01-23T10:58:00.045Z,1030.01
2018-01-23T10:59:00.111Z,1029.94
2018-01-23T11:00:00.151Z,1029.97
2018-01-23T11:01:00.157Z,1029.95
2018-01-23T11:02:00.153Z,1029.93
2018-01-23T11:03:00.102Z,1029.94
2018-01-23T11:04:00.116Z,1029.95
2018-01-23T11:05:00.071Z,1029.92
2018-01-23T11:06:00.138Z,1029.9
2018-01-23T11:07:00.190Z,1029.91
2018-01-23T11:08:00.268Z,1029.89
2018-01-23T11:09:00.303Z,1029.91
2018-01-23T11:10:00.265Z,1029.86
2018-01-23T11:11:00.210Z,1029.85
2018-01-23T11:12:00.244Z,1029.88
2018-01-23T11:13:00.292Z,1029.87
2018-01-23T11:14:00.295Z,1029.85
2018-01-23T11:15:00.277Z,1029.82
2018-01-23T11:16:00.267Z,1029.8
2018-01-23T11:17:00.216Z,1029.84
2018-01-23T11:18:00.377Z,1029.78
2018-01-23T11:19:00.269Z,1029.79
2018-01-23T11:20:00.214Z,1029.7
2018-01-23T11:21:00.201Z,1029.72
2018-01-23T11:22:00.360Z,1029.72
2018-01-23T11:23:00.981Z,1029.69
2018-01-23T11:24:00.292Z,1029.68
2018-01-23T11:25:00.221Z,1029.63
2018-01-23T11:26:00.192Z,1029.64
2018-01-23T11:27:00.153Z,1029.63
2018-01-23T11:28:00.246Z,1029.64
2018-01-23T11:29:00.319Z,1029.6
2018-01-23T11:30:00.253Z,1029.62
2018-01-23T11:31:00.196Z,1029.64
2018-01-23T11:32:00.330Z,1029.63
2018-01-23T11:33:00.178Z,1029.65
2018-01-23T11:34:00.279Z,1029.6
2018-01-23T11:35:00.257Z,1029.58
2018-01-23T11:36:00.204Z,1029.57
2018-01-23T11:37:00.198Z,1029.61
2018-01-23T11:38:00.226Z,1029.6
2018-01-23T11:39:00.326Z,1029.58
2018-01-23T11:40:00.549Z,1029.59
2018-01-23T11:41:00.291Z,1029.57
2018-01-23T11:42:00.245Z,1029.57
2018-01-23T11:43:00.280Z,1029.56
2018-01-23T11:44:00.248Z,1029.57
2018-01-23T11:45:00.359Z,1029.6
2018-01-23T11:46:00.418Z,1029.55
2018-01-23T11:47:00.294Z,1029.54
2018-01-23T11:48:00.285Z,1029.53
2018-01-23T11:49:00.291Z,1029.55
2018-01-23T11:50:00.368Z,1029.53
2018-01-23T11:51:00.293Z,1029.51
2018-01-23T11:52:00.313Z,1029.44
2018-01-23T11:53:00.318Z,1029.48
2018-01-23T11:54:00.473Z,1029.51
2018-01-23T11:55:00.340Z,1029.51
2018-01-23T11:56:00.367Z,1029.49
2018-01-23T11:57:00.262Z,1029.5
2018-01-23T11:58:00.250Z,1029.5
2018-01-23T11:59:00.248Z,1029.47
2018-01-23T12:00:00.305Z,1029.46
2018-01-23T12:01:00.300Z,1029.42
2018-01-23T12:02:00.389Z,1029.48
2018-01-23T12:03:00.389Z,1029.44
2018-01-23T12:04:00.232Z,1029.43
2018-01-23T12:05:00.312Z,1029.45
2018-01-23T12:06:00.314Z,1029.43
2018-01-23T12:07:00.290Z,1029.46
2018-01-23T12:08:00.284Z,1029.41
2018-01-23T12:08:59.380Z,1029.44
2018-01-23T12:09:59.373Z,1029.4